createdAt,value
2022-09-28T00:00:18.664Z,6.84
2022-09-28T00:01:18.773Z,6.83
2022-09-28T00:02:18.718Z,6.77
2022-09-28T00:03:18.623Z,6.73
2022-09-28T00:19:27.635Z,6.24
2022-09-28T00:20:22.325Z,6.19
2022-09-28T00:21:22.274Z,6.21
2022-09-28T00:22:22.171Z,6.18
2022-09-28T00:27:45.085Z,6.26
2022-09-28T00:28:45.273Z,6.21
2022-09-28T00:29:45.180Z,6.22
2022-09-28T00:30:45.133Z,6.21
2022-09-28T00:31:45.267Z,6.18
2022-09-28T00:32:45.112Z,6.22
2022-09-28T00:44:14.552Z,6.19
2022-09-28T00:44:57.320Z,6.21
2022-09-28T00:45:57.346Z,6.21
2022-09-28T00:46:57.177Z,6.24
2022-09-28T00:47:57.147Z,6.26
2022-09-28T01:17:26.661Z,6.96
2022-09-28T01:18:16.712Z,6.96
2022-09-28T01:21:20.385Z,7.03
2022-09-28T01:22:21.411Z,7.03
2022-09-28T01:23:21.138Z,7.03
2022-09-28T01:24:21.156Z,7.05
2022-09-28T01:25:21.146Z,7.07
2022-09-28T01:37:21.311Z,7.10
2022-09-28T01:38:22.427Z,7.10
2022-09-28T01:39:22.178Z,7.13
2022-09-28T01:50:04.225Z,7.17
2022-09-28T02:28:44.803Z,7.20
2022-09-28T02:29:45.758Z,7.18
2022-09-28T02:30:45.627Z,7.20
2022-09-28T02:31:45.634Z,7.18
2022-09-28T02:32:45.525Z,7.18
2022-09-28T02:33:45.540Z,7.20
2022-09-28T02:34:45.517Z,7.14
2022-09-28T02:35:45.540Z,7.17
2022-09-28T02:38:07.558Z,7.16
2022-09-28T02:39:08.600Z,7.14
2022-09-28T03:07:14.681Z,7.07
2022-09-28T03:08:15.119Z,7.05
2022-09-28T03:09:15.036Z,7.02
2022-09-28T03:10:14.985Z,7.00
2022-09-28T03:24:34.827Z,7.00
2022-09-28T04:49:20.755Z,6.75
2022-09-28T04:50:21.078Z,6.75
2022-09-28T04:51:21.031Z,6.75
2022-09-28T04:52:21.004Z,6.78
2022-09-28T05:32:33.506Z,6.98
2022-09-28T05:33:34.322Z,6.96
2022-09-28T05:34:34.285Z,6.96
2022-09-28T05:35:34.278Z,6.95
2022-09-28T05:36:34.261Z,6.96
2022-09-28T05:37:34.320Z,6.96
2022-09-28T05:59:44.273Z,6.99
2022-09-28T06:00:43.455Z,7.03
2022-09-28T06:01:42.555Z,7.05
2022-09-28T06:02:43.439Z,7.08
2022-09-28T06:03:43.342Z,7.08
2022-09-28T06:04:43.352Z,7.08
2022-09-28T06:05:43.379Z,7.10
2022-09-28T06:06:43.368Z,7.10
2022-09-28T07:40:26.983Z,7.90
2022-09-28T07:41:27.864Z,7.91
2022-09-28T07:42:27.766Z,7.88
2022-09-28T07:43:27.780Z,7.90
2022-09-28T07:53:46.629Z,8.30
2022-09-28T07:54:47.407Z,8.39
2022-09-28T07:55:47.409Z,8.45
2022-09-28T07:56:47.382Z,8.55
2022-09-28T07:57:47.358Z,8.64
2022-09-28T07:58:47.362Z,8.75
2022-09-28T08:21:50.601Z,8.81
2022-09-28T08:22:51.450Z,8.72
2022-09-28T08:23:51.411Z,8.67
2022-09-28T08:24:51.437Z,8.73
2022-09-28T08:25:51.394Z,8.73
2022-09-28T15:38:13.656Z,12.82
2022-09-28T16:07:35.921Z,12.46
2022-09-28T16:08:36.851Z,12.46
2022-09-28T16:09:41.045Z,12.45
2022-09-28T16:10:36.845Z,12.39
2022-09-28T16:11:36.832Z,12.42
2022-09-28T16:12:36.746Z,12.42
2022-09-28T16:13:36.793Z,12.45
2022-09-28T16:14:36.753Z,12.40
2022-09-28T16:15:36.811Z,12.42
2022-09-28T16:16:36.716Z,12.42
2022-09-28T16:17:36.692Z,12.40
2022-09-28T16:18:36.711Z,12.35
2022-09-28T16:19:36.672Z,12.36
2022-09-28T16:20:36.677Z,12.33
2022-09-28T16:21:36.745Z,12.32
2022-09-28T16:22:36.640Z,12.32
2022-09-28T16:23:36.681Z,12.28
2022-09-28T16:24:36.611Z,12.28
2022-09-28T16:25:36.601Z,12.27
2022-09-28T16:26:36.650Z,12.22
2022-09-28T16:27:36.621Z,12.22
2022-09-28T16:28:36.601Z,12.22
2022-09-28T16:29:36.568Z,12.21
2022-09-28T16:30:36.596Z,12.24
2022-09-28T16:31:36.590Z,12.22
2022-09-28T16:32:36.551Z,12.24
2022-09-28T16:33:36.572Z,12.22
2022-09-28T16:34:36.505Z,12.21
2022-09-28T16:35:36.496Z,12.21
2022-09-28T16:36:36.517Z,12.17
2022-09-28T16:37:36.477Z,12.15
2022-09-28T16:38:36.473Z,12.14
